General Rodriguez, Argentina
Current Conditions -  °F | °C
As of 3:00 AM on Friday 31 Oct 2014 (Local Time) from SADF Reporting Station
Clear Clear  
Wind Chill: 18°   Ceiling: Unl
Heat Index: 18°   Visibility: 6mi
Dew Point: 14°   Wind: 3mph
Humidity: 77%   Direction: 50°NE
Pressure: 29.85"   Gusts: NA
Location:  34.6°S, 58.95°W
Report Text: SADF 310600Z 05003KT CAVOK 18/14 Q1011
Loading
Personal Weather Stations






























Interactive Weather Map
Tropical Storm Tracking
New forecast layout! Learn more

10-Day Weather Forecast

Advertisements
Track Severe Weather on mobile